Airfield :
LOGIN :

Register | Disclaimer

   EN    FR    IT 

 










Legend :    VFR   Marginal VFR   IFR   Intensive IFR   Very Intensive IFR
Visi :
Ceiling :
>= 8 km
>= 3000ft
5 to 8 km
1000 to 3000 ft
1500m to 5 km
500 to 1000 ft
800 to 1500m
200 to 500 ft
< 800m
< 200 ft
Symbols :   Thunderstorms  Fog  Heavy snow  Heavy precipitations  Wind > 20 kt
SIGMETs :     Misc.  Thunderstorms  Icing  Turbulence  Mountain Waves  Volcanic Ashes






- Airport Elevation : 265 ft


LFMC - Le Luc

CURRENT METAR :
  • 182230Z AUTO VRB02KT 9999 ////// 24/18 Q1018

EXPIRED METARs :
  • 182200Z AUTO 20002KT 9999 ////// 25/18 Q1018
  • 182130Z AUTO VRB01KT 9999 ////// 26/18 Q1018
  • 182100Z AUTO 00000KT 9999 ////// 26/18 Q1017
  • 182030Z AUTO 06003KT 9999 ////// 27/18 Q1017
  • 182000Z AUTO VRB03KT 9999 ////// 28/18 Q1017
  • 181930Z AUTO VRB02KT 9999 ////// 29/19 Q1017
  • 181900Z AUTO 05004KT 9999 ////// 30/20 Q1016
  • 181830Z AUTO 03004KT 010V070 9999 ////// ///// Q1016
  • 181800Z AUTO 27005KT 230V300 9999 ////// 34/17 Q1016

TAF N/A



MET'MAP, your aeronautical weather chart ! - Copyright ORBIFLY December 2007 - Disclaimer

ORBIFLY MET'MAP TEAM :

Programming & Development : Alexandra Zaïnal
Original concept : Baudouin d'Aumeries
Technical & hardware support : Manuel Goepfert
Assistance : Marc-Olivier Méhu




SOURCES & CREDITS :

   NOAA